Time;durP1;ratioP1;P1;durP2;ratioP2;P2;SDS_P1;SDS_P2;PMS_P1;PMS_P2;Temp;Humidity;BMP_temperature;BMP_pressure;BME280_temperature;BME280_humidity;BME280_pressure;Samples;Min_cycle;Max_cycle;Signal;HPM_P1;HPM_P2
2023/04/14 00:02:25;;;;;;;;;;;;;;;9.51;36.60;100481.97;5019542;28;20041;-81
2023/04/14 00:04:54;;;;;;;3.45;1.38;;;;;;;9.67;35.97;100491.41;5021651;28;19929;-81
2023/04/14 00:07:22;;;;;;;3.45;1.40;;;;;;;9.68;35.79;100489.53;5014047;28;20057;-81
2023/04/14 00:09:49;;;;;;;3.75;1.50;;;;;;;9.63;35.39;100484.50;5020432;28;20411;-82
2023/04/14 00:12:17;;;;;;;3.75;1.70;;;;;;;9.59;36.07;100480.28;5018271;28;20045;-82
2023/04/14 00:14:45;;;;;;;2.65;1.30;;;;;;;9.54;35.79;100482.59;5020982;28;20041;-82
2023/04/14 00:17:13;;;;;;;3.25;1.50;;;;;;;9.51;35.72;100482.84;5020501;28;20515;-82
2023/04/14 00:19:43;;;;;;;3.88;1.60;;;;;;;9.49;36.18;100484.00;5019287;28;20049;-83
2023/04/14 00:22:11;;;;;;;4.30;1.70;;;;;;;9.44;36.24;100490.72;5014393;28;20046;-80
2023/04/14 00:24:42;;;;;;;4.93;1.60;;;;;;;9.42;35.81;100492.72;5020182;28;20041;-80
2023/04/14 00:27:10;;;;;;;3.22;1.60;;;;;;;9.38;36.03;100496.75;5016171;28;20161;-80
2023/04/14 00:29:38;;;;;;;3.10;1.60;;;;;;;9.37;36.39;100497.72;5020677;28;20041;-83
2023/04/14 00:32:06;;;;;;;5.28;1.90;;;;;;;9.36;35.98;100492.38;5018118;28;20423;-82
2023/04/14 00:34:34;;;;;;;5.40;2.30;;;;;;;9.33;35.89;100492.66;5015366;28;20048;-81
2023/04/14 00:37:04;;;;;;;4.70;2.10;;;;;;;9.32;36.03;100496.41;5041977;28;20061;-82
2023/04/14 00:39:32;;;;;;;4.60;1.80;;;;;;;9.28;36.09;100495.78;5018785;28;20054;-82
2023/04/14 00:42:01;;;;;;;7.05;1.92;;;;;;;9.29;36.25;100489.34;5028754;28;20552;-81
2023/04/14 00:44:29;;;;;;;4.38;2.30;;;;;;;9.26;36.17;100491.44;5025574;28;20038;-81
2023/04/14 00:47:00;;;;;;;6.70;2.33;;;;;;;9.25;36.68;100495.19;5018636;28;20046;-81
2023/04/14 00:49:28;;;;;;;5.30;2.75;;;;;;;9.24;36.43;100497.06;5028942;28;20041;-80
2023/04/14 00:51:56;;;;;;;5.18;2.25;;;;;;;9.20;36.59;100506.53;5052012;28;20045;-80
2023/04/14 00:54:28;;;;;;;4.20;2.20;;;;;;;9.21;36.56;100513.72;5016802;28;20096;-81
2023/04/14 00:56:56;;;;;;;6.70;2.58;;;;;;;9.18;36.70;100515.84;5025251;28;20140;-82
2023/04/14 00:59:24;;;;;;;6.63;2.85;;;;;;;9.16;36.64;100510.53;5037155;28;20057;-82
2023/04/14 01:01:53;;;;;;;7.35;2.97;;;;;;;9.14;36.45;100523.44;5024434;28;20357;-84
2023/04/14 01:04:22;;;;;;;8.18;3.28;;;;;;;9.12;36.59;100527.28;5013431;28;20038;-82
2023/04/14 01:06:54;;;;;;;6.00;2.97;;;;;;;9.06;36.19;100525.97;5016644;28;20050;-82
2023/04/14 01:09:23;;;;;;;8.52;3.65;;;;;;;9.04;36.16;100531.56;5005476;28;20034;-81
2023/04/14 01:12:01;;;;;;;6.20;2.60;;;;;;;9.04;37.24;100530.69;5021417;28;20045;-81
2023/04/14 01:14:40;;;;;;;8.35;2.75;;;;;;;8.98;37.21;100528.50;5024661;28;20053;-82
2023/04/14 01:17:17;;;;;;;5.30;2.33;;;;;;;8.92;36.89;100531.72;5027016;28;20523;-80
2023/04/14 01:20:02;;;;;;;5.60;2.60;;;;;;;8.89;37.36;100532.88;5027071;28;20415;-81
2023/04/14 01:22:33;;;;;;;5.05;1.90;;;;;;;8.84;37.00;100536.97;5015210;28;20073;-81
2023/04/14 01:25:20;;;;;;;5.50;2.22;;;;;;;8.84;37.37;100534.25;5045872;28;20044;-82
2023/04/14 01:28:05;;;;;;;3.35;1.77;;;;;;;8.80;37.55;100539.13;5025771;28;20547;-82
2023/04/14 01:30:47;;;;;;;3.67;1.65;;;;;;;8.77;37.82;100547.56;5023399;28;20059;-81
2023/04/14 01:33:20;;;;;;;4.32;1.83;;;;;;;8.74;37.71;100541.50;5023088;28;20554;-82
2023/04/14 01:35:50;;;;;;;;;;;;;;;8.48;37.74;100543.72;5015588;28;20128;-81
2023/04/14 01:38:23;;;;;;;3.97;1.63;;;;;;;8.65;37.27;100541.31;5018144;28;19921;-81
2023/04/14 01:40:57;;;;;;;4.57;1.92;;;;;;;8.67;37.73;100546.63;5011485;28;20171;-81
2023/04/14 01:43:28;;;;;;;3.83;1.98;;;;;;;8.60;36.89;100548.13;5018197;28;20109;-82
2023/04/14 01:46:00;;;;;;;5.07;2.30;;;;;;;8.59;37.44;100549.97;5011811;28;20072;-81
2023/04/14 01:48:32;;;;;;;4.45;2.00;;;;;;;8.55;37.50;100555.84;5027587;28;20057;-81
2023/04/14 01:51:02;;;;;;;4.75;2.00;;;;;;;8.51;37.38;100552.50;5034482;28;20058;-81
2023/04/14 01:53:35;;;;;;;4.57;2.00;;;;;;;8.47;37.33;100544.72;5031960;28;20041;-80
2023/04/14 01:56:07;;;;;;;4.00;2.03;;;;;;;8.43;37.18;100552.25;5017538;28;20113;-81
2023/04/14 01:58:37;;;;;;;3.20;1.90;;;;;;;8.40;37.29;100554.41;5024015;28;20057;-81
2023/04/14 02:01:06;;;;;;;4.63;1.85;;;;;;;8.38;37.78;100550.94;5018309;28;20050;-81
2023/04/14 02:03:37;;;;;;;5.32;2.10;;;;;;;8.36;37.80;100555.63;5055572;28;20087;-81
2023/04/14 02:06:07;;;;;;;3.83;1.90;;;;;;;8.33;37.70;100551.31;5021725;28;20369;-81
2023/04/14 02:08:38;;;;;;;5.13;1.67;;;;;;;8.33;38.08;100554.03;5026396;28;20045;-81
2023/04/14 02:11:08;;;;;;;3.88;1.77;;;;;;;8.29;37.99;100547.97;5021237;28;20140;-81
2023/04/14 02:13:39;;;;;;;4.43;2.10;;;;;;;8.29;38.01;100549.81;5030935;28;20045;-81
2023/04/14 02:16:09;;;;;;;4.00;1.60;;;;;;;8.29;37.65;100552.56;5012779;28;20413;-82
2023/04/14 02:18:41;;;;;;;4.70;1.88;;;;;;;8.29;37.92;100549.81;5010802;28;20045;-81
2023/04/14 02:21:10;;;;;;;4.35;2.15;;;;;;;8.28;37.49;100550.81;5012328;28;20136;-81
2023/04/14 02:23:38;;;;;;;4.57;1.85;;;;;;;8.27;37.73;100546.34;5031914;28;20104;-81
2023/04/14 02:26:12;;;;;;;3.83;1.70;;;;;;;8.28;38.42;100554.41;5012536;28;20140;-81
2023/04/14 02:28:46;;;;;;;5.88;2.10;;;;;;;8.28;38.26;100553.53;5007496;28;20053;-81
2023/04/14 02:31:19;;;;;;;4.45;1.75;;;;;;;8.26;37.76;100561.84;5012111;28;20073;-82
2023/04/14 02:33:53;;;;;;;4.90;2.00;;;;;;;8.26;38.06;100556.38;5014157;28;20050;-81
2023/04/14 02:36:26;;;;;;;4.22;2.00;;;;;;;8.25;37.81;100562.00;5019177;28;20561;-81
2023/04/14 02:39:00;;;;;;;3.78;1.92;;;;;;;8.24;38.39;100552.94;5012152;28;20045;-81
2023/04/14 02:41:30;;;;;;;5.03;2.13;;;;;;;8.22;38.26;100557.66;5012086;28;20508;-81
2023/04/14 02:44:05;;;;;;;4.93;1.85;;;;;;;8.23;38.28;100555.78;5017627;28;20046;-81
2023/04/14 02:46:39;;;;;;;4.63;2.05;;;;;;;8.21;38.09;100560.50;5011147;28;20061;-81
2023/04/14 02:49:13;;;;;;;3.58;2.13;;;;;;;8.21;38.13;100563.22;5012273;28;20088;-82
2023/04/14 02:51:45;;;;;;;5.80;2.20;;;;;;;8.20;38.46;100558.75;5015591;28;20412;-82
2023/04/14 02:54:15;;;;;;;5.22;2.20;;;;;;;8.20;38.21;100567.81;5013618;28;20045;-82
2023/04/14 02:56:47;;;;;;;7.60;2.40;;;;;;;8.19;37.87;100570.66;5010798;28;20046;-81
2023/04/14 02:59:18;;;;;;;4.13;2.15;;;;;;;8.18;37.98;100561.59;5011937;28;20045;-80
2023/04/14 03:01:58;;;;;;;4.38;2.10;;;;;;;8.17;38.00;100559.91;5009514;28;20322;-80
2023/04/14 03:04:29;;;;;;;5.27;2.33;;;;;;;8.15;38.43;100570.06;5016747;28;20564;-80
2023/04/14 03:06:58;;;;;;;4.47;2.38;;;;;;;8.16;38.01;100573.66;5018954;28;20381;-81
2023/04/14 03:09:27;;;;;;;3.88;2.20;;;;;;;8.14;38.38;100576.50;5019743;28;20037;-81
2023/04/14 03:11:55;;;;;;;5.22;2.40;;;;;;;8.14;38.31;100573.78;5015486;28;20107;-81
2023/04/14 03:14:25;;;;;;;4.63;2.60;;;;;;;8.14;38.42;100573.78;5013099;28;20071;-81
2023/04/14 03:16:54;;;;;;;4.45;2.35;;;;;;;8.15;37.72;100571.91;5037336;28;20054;-81
2023/04/14 03:19:25;;;;;;;4.47;2.22;;;;;;;8.14;37.86;100568.31;5018532;28;20052;-80
2023/04/14 03:21:58;;;;;;;4.93;2.35;;;;;;;8.13;38.51;100560.22;5014158;28;20057;-83
2023/04/14 03:24:30;;;;;;;4.50;2.20;;;;;;;8.12;37.96;100563.94;5043645;28;20161;-83
2023/04/14 03:27:02;;;;;;;4.05;2.30;;;;;;;8.12;38.15;100570.25;5030108;28;20064;-83
2023/04/14 03:29:34;;;;;;;5.13;2.57;;;;;;;8.10;38.00;100571.38;5020753;28;20151;-82
2023/04/14 03:32:05;;;;;;;5.45;2.45;;;;;;;8.09;38.27;100566.94;5022968;28;20408;-83
2023/04/14 03:34:40;;;;;;;4.53;2.42;;;;;;;8.08;38.48;100579.69;5017146;28;20647;-82
2023/04/14 03:37:11;;;;;;;4.20;2.55;;;;;;;8.05;38.42;100574.50;5026733;28;20049;-82
2023/04/14 03:40:04;;;;;;;4.60;2.80;;;;;;;8.01;38.90;100567.56;5016919;28;20445;-82
2023/04/14 03:42:34;;;;;;;4.28;2.40;;;;;;;7.98;38.26;100567.81;5010901;28;20057;-72
2023/04/14 03:45:03;;;;;;;5.13;2.42;;;;;;;7.98;37.89;100566.94;5026395;28;20052;-73
2023/04/14 03:47:34;;;;;;;4.40;2.38;;;;;;;7.95;38.43;100570.78;5051192;28;20049;-71
2023/04/14 03:50:07;;;;;;;6.38;2.60;;;;;;;7.95;38.62;100570.78;5053852;28;20042;-73
2023/04/14 03:52:42;;;;;;;4.63;2.70;;;;;;;7.94;38.33;100569.91;5024392;28;20064;-71
2023/04/14 03:55:12;;;;;;;5.53;2.72;;;;;;;7.92;38.34;100573.78;5054985;28;20229;-72
2023/04/14 03:57:43;;;;;;;6.22;3.17;;;;;;;7.89;38.41;100574.00;5054917;28;20060;-73
2023/04/14 04:00:14;;;;;;;6.45;2.55;;;;;;;7.89;38.15;100571.28;5035872;28;20037;-71
2023/04/14 04:02:45;;;;;;;4.72;2.63;;;;;;;7.85;37.95;100575.22;5061318;28;20064;-72
2023/04/14 04:05:14;;;;;;;6.40;3.33;;;;;;;7.85;38.51;100578.81;5046039;28;20199;-73
2023/04/14 04:07:46;;;;;;;5.07;2.80;;;;;;;7.83;38.45;100579.97;5031050;28;20052;-71
2023/04/14 04:10:15;;;;;;;7.03;3.22;;;;;;;7.79;38.42;100575.72;5035586;28;20041;-73
2023/04/14 04:12:44;;;;;;;5.72;3.47;;;;;;;7.75;38.23;100579.72;5048549;28;20110;-72
2023/04/14 04:15:12;;;;;;;5.80;3.17;;;;;;;7.72;38.33;100577.22;5037334;28;20131;-70
2023/04/14 04:17:43;;;;;;;5.38;3.30;;;;;;;7.69;38.71;100588.34;5021319;28;20057;-72
2023/04/14 04:20:15;;;;;;;5.45;3.00;;;;;;;7.67;39.02;100590.34;5036277;28;20041;-72
2023/04/14 04:22:49;;;;;;;5.88;3.10;;;;;;;7.63;38.83;100592.44;5036733;28;20131;-73
2023/04/14 04:25:18;;;;;;;4.63;3.03;;;;;;;7.58;38.63;100602.84;5049684;28;20520;-73
2023/04/14 04:27:55;;;;;;;5.95;2.95;;;;;;;7.55;38.73;100595.78;5049573;28;20479;-70
2023/04/14 04:30:25;;;;;;;6.30;3.03;;;;;;;7.54;38.40;100596.75;5049837;28;20048;-71
2023/04/14 04:32:53;;;;;;;5.35;2.75;;;;;;;7.52;38.86;100598.72;5040587;28;20041;-70
2023/04/14 04:35:23;;;;;;;4.35;2.65;;;;;;;7.51;39.08;100602.47;5056834;28;20418;-70
2023/04/14 04:37:53;;;;;;;4.97;2.67;;;;;;;7.51;38.70;100605.19;5032023;28;20500;-70
2023/04/14 04:40:21;;;;;;;4.82;3.10;;;;;;;7.47;39.05;100609.13;5032946;28;20084;-70
2023/04/14 04:42:51;;;;;;;5.90;2.97;;;;;;;7.45;38.64;100602.94;5040013;28;20508;-70
2023/04/14 04:45:29;;;;;;;6.43;3.30;;;;;;;7.44;39.08;100612.06;5037167;28;20151;-73
2023/04/14 04:47:58;;;;;;;5.30;2.97;;;;;;;7.41;38.66;100608.75;5048354;28;20078;-72
2023/04/14 04:50:26;;;;;;;4.88;3.13;;;;;;;7.39;38.84;100611.59;5046601;28;20048;-72
2023/04/14 04:52:55;;;;;;;5.72;2.70;;;;;;;7.39;38.95;100608.00;5053145;28;20051;-72
2023/04/14 04:55:23;;;;;;;4.80;2.72;;;;;;;7.35;39.04;100606.50;5058748;28;20056;-72
2023/04/14 04:57:51;;;;;;;7.07;2.90;;;;;;;7.33;38.75;100606.63;5061204;28;20036;-72
2023/04/14 05:00:21;;;;;;;4.97;2.67;;;;;;;7.32;39.10;100607.59;5062341;28;20048;-71
2023/04/14 05:02:50;;;;;;;4.63;2.58;;;;;;;7.30;39.12;100611.44;5057696;28;20068;-71
2023/04/14 05:05:18;;;;;;;6.65;2.60;;;;;;;7.29;39.43;100606.97;5048635;28;20131;-73
2023/04/14 05:07:46;;;;;;;6.40;2.85;;;;;;;7.26;39.58;100605.38;5047600;28;20040;-73
2023/04/14 05:10:15;;;;;;;5.55;2.83;;;;;;;7.27;39.51;100611.69;5056817;28;20041;-73
2023/04/14 05:12:43;;;;;;;3.80;2.83;;;;;;;7.24;39.40;100606.47;5049607;28;20061;-72
2023/04/14 05:15:11;;;;;;;4.68;2.60;;;;;;;7.24;39.27;100601.91;5051814;28;20044;-73
2023/04/14 05:17:39;;;;;;;4.35;2.45;;;;;;;7.24;39.81;100606.47;5055691;28;20053;-73
2023/04/14 05:20:08;;;;;;;4.05;2.38;;;;;;;7.24;39.40;100604.63;5054965;28;20666;-73
2023/04/14 05:22:36;;;;;;;4.22;2.60;;;;;;;7.24;39.63;100607.34;5054840;28;20040;-71
2023/04/14 05:25:04;;;;;;;5.15;2.78;;;;;;;7.26;39.85;100609.94;5036516;28;20102;-73
2023/04/14 05:27:33;;;;;;;6.00;2.92;;;;;;;7.28;39.96;100610.66;5053024;28;20071;-72
2023/04/14 05:30:01;;;;;;;5.82;2.80;;;;;;;7.29;39.64;100616.00;5055754;28;20086;-74
2023/04/14 05:32:29;;;;;;;4.90;2.50;;;;;;;7.31;39.58;100613.16;5050158;28;20053;-73
2023/04/14 05:34:57;;;;;;;5.25;2.72;;;;;;;7.32;39.71;100613.06;5052776;28;20079;-73
2023/04/14 05:37:28;;;;;;;6.05;2.83;;;;;;;7.35;39.83;100618.28;5051162;28;20139;-72
2023/04/14 05:39:56;;;;;;;5.07;2.92;;;;;;;7.38;40.18;100619.88;5049011;28;20049;-69
2023/04/14 05:42:24;;;;;;;4.60;2.90;;;;;;;7.39;40.34;100614.31;5064489;28;20045;-71
2023/04/14 05:44:53;;;;;;;5.90;3.13;;;;;;;7.42;40.45;100619.53;5059970;28;20047;-70
2023/04/14 05:47:21;;;;;;;5.97;3.03;;;;;;;7.42;39.99;100614.06;5055196;28;20056;-71
2023/04/14 05:49:49;;;;;;;6.00;2.97;;;;;;;7.45;40.54;100615.66;5049551;28;20419;-72
2023/04/14 05:52:17;;;;;;;5.38;3.33;;;;;;;7.47;40.63;100611.84;5059544;28;20431;-71
2023/04/14 05:54:45;;;;;;;5.78;2.90;;;;;;;7.51;40.55;100617.94;5050133;28;20076;-71
2023/04/14 05:57:12;;;;;;;6.15;3.00;;;;;;;7.54;40.79;100618.53;5031052;28;20037;-73
2023/04/14 05:59:41;;;;;;;5.03;2.75;;;;;;;7.60;40.47;100616.34;5059869;28;20047;-72
2023/04/14 06:02:11;;;;;;;5.70;3.20;;;;;;;7.66;41.11;100624.03;5039513;28;20057;-71
2023/04/14 06:04:39;;;;;;;5.10;3.20;;;;;;;7.71;40.77;100621.78;5047245;28;20123;-73
2023/04/14 06:07:07;;;;;;;4.50;2.75;;;;;;;7.77;40.74;100615.84;5060562;28;20045;-72
2023/04/14 06:09:35;;;;;;;7.68;3.20;;;;;;;7.82;40.78;100616.38;5042163;28;20440;-73
2023/04/14 06:12:02;;;;;;;5.53;3.13;;;;;;;7.89;40.80;100614.88;5050093;28;20459;-71
2023/04/14 06:14:30;;;;;;;5.63;2.90;;;;;;;7.97;41.24;100617.84;5051116;28;20419;-72
2023/04/14 06:16:58;;;;;;;5.63;3.20;;;;;;;8.07;40.84;100615.25;5057310;28;20301;-73
2023/04/14 06:19:27;;;;;;;5.07;3.08;;;;;;;8.17;41.32;100613.56;5038094;28;20052;-69
2023/04/14 06:21:55;;;;;;;6.40;3.60;;;;;;;8.23;41.35;100611.19;5026901;28;20052;-72
2023/04/14 06:24:23;;;;;;;4.53;3.03;;;;;;;8.33;40.89;100606.72;5064293;28;20814;-71
2023/04/14 06:26:51;;;;;;;5.07;3.00;;;;;;;8.44;40.89;100615.84;5043346;28;20455;-73
2023/04/14 06:29:19;;;;;;;5.18;3.05;;;;;;;8.54;40.93;100606.78;5060967;28;20050;-72
2023/04/14 06:31:47;;;;;;;5.75;3.05;;;;;;;8.66;41.01;100605.78;5035131;28;20064;-71
2023/04/14 06:34:15;;;;;;;4.72;3.00;;;;;;;8.76;40.93;100603.13;5035500;28;20051;-72
2023/04/14 06:36:44;;;;;;;4.43;2.95;;;;;;;8.88;40.65;100596.66;5045360;28;20110;-71
2023/04/14 06:39:12;;;;;;;7.35;2.97;;;;;;;8.99;41.17;100596.63;5051077;28;20129;-71
2023/04/14 06:41:40;;;;;;;4.57;2.60;;;;;;;9.10;40.62;100599.28;5052794;28;20048;-72
2023/04/14 06:44:09;;;;;;;4.78;2.72;;;;;;;9.21;40.63;100602.94;5046186;28;20476;-72
2023/04/14 06:46:38;;;;;;;6.43;2.75;;;;;;;9.33;40.86;100607.38;5057789;28;20047;-71
2023/04/14 06:49:07;;;;;;;4.65;2.63;;;;;;;9.44;40.30;100602.72;5030221;28;20068;-72
2023/04/14 06:51:35;;;;;;;5.70;3.03;;;;;;;9.55;40.64;100601.81;5052151;28;20523;-72
2023/04/14 06:54:04;;;;;;;7.45;3.25;;;;;;;9.69;39.91;100590.50;5051894;28;20417;-71
2023/04/14 06:56:32;;;;;;;5.75;3.10;;;;;;;9.79;40.10;100583.25;5050456;28;20392;-71
2023/04/14 06:59:00;;;;;;;5.18;2.60;;;;;;;9.88;40.24;100592.50;5056419;28;20530;-70
2023/04/14 07:01:28;;;;;;;4.32;2.40;;;;;;;9.98;40.01;100598.00;5038684;28;20056;-71
2023/04/14 07:03:56;;;;;;;5.10;2.75;;;;;;;10.03;39.99;100585.66;5031139;28;20392;-70
2023/04/14 07:06:23;;;;;;;5.60;2.83;;;;;;;10.14;39.33;100592.91;5058034;28;20059;-70
2023/04/14 07:08:52;;;;;;;4.70;2.83;;;;;;;10.20;39.75;100593.19;5053102;28;20047;-70
2023/04/14 07:11:22;;;;;;;7.60;3.03;;;;;;;10.31;39.91;100588.63;5053229;28;20048;-71
2023/04/14 07:13:50;;;;;;;7.38;2.40;;;;;;;10.38;40.00;100584.34;5056946;28;20037;-71
2023/04/14 07:16:17;;;;;;;5.35;2.80;;;;;;;10.47;39.46;100586.22;5027573;28;20048;-71
2023/04/14 07:18:45;;;;;;;5.63;3.22;;;;;;;10.57;39.52;100577.06;5051320;28;20041;-70
2023/04/14 07:21:13;;;;;;;4.75;2.60;;;;;;;10.68;39.72;100575.19;5052933;28;20049;-71
2023/04/14 07:23:41;;;;;;;6.15;2.72;;;;;;;10.77;39.11;100574.34;5058004;28;20040;-71
2023/04/14 07:26:09;;;;;;;5.28;2.80;;;;;;;10.85;38.90;100575.38;5046561;28;20080;-70
2023/04/14 07:28:38;;;;;;;6.13;2.83;;;;;;;10.96;39.02;100575.25;5048729;28;20120;-70
2023/04/14 07:31:10;;;;;;;4.50;2.63;;;;;;;11.07;38.64;100567.88;5062672;28;20051;-70
2023/04/14 07:33:38;;;;;;;5.32;3.00;;;;;;;11.13;39.01;100567.31;5045880;28;20049;-70
2023/04/14 07:36:06;;;;;;;5.88;3.00;;;;;;;11.23;38.79;100565.41;5049736;28;20048;-70
2023/04/14 07:38:35;;;;;;;6.72;2.47;;;;;;;11.33;38.93;100564.38;5047317;28;20033;-70
2023/04/14 07:41:05;;;;;;;4.32;2.60;;;;;;;11.44;38.74;100570.72;5035967;28;20103;-71
2023/04/14 07:43:34;;;;;;;5.40;2.60;;;;;;;11.54;38.58;100563.34;5049426;28;20069;-70
2023/04/14 07:46:05;;;;;;;5.13;2.40;;;;;;;11.66;38.31;100562.19;5050085;28;20044;-71
2023/04/14 07:48:34;;;;;;;5.22;2.55;;;;;;;11.77;38.92;100553.78;5050512;28;20041;-70
2023/04/14 07:51:03;;;;;;;4.18;2.42;;;;;;;11.89;38.06;100565.41;5051823;28;20228;-70
2023/04/14 07:53:31;;;;;;;5.55;2.53;;;;;;;12.00;38.54;100562.50;5052359;28;20043;-71
2023/04/14 07:55:59;;;;;;;5.70;3.22;;;;;;;12.10;38.09;100555.97;5043741;28;21457;-70
2023/04/14 07:58:27;;;;;;;5.10;2.35;;;;;;;12.22;37.75;100555.75;5047028;28;20036;-70
2023/04/14 08:00:56;;;;;;;5.07;2.25;;;;;;;12.31;38.12;100546.59;5032112;28;20045;-70
2023/04/14 08:03:25;;;;;;;5.10;2.20;;;;;;;12.42;37.68;100549.16;5052561;28;20051;-70
2023/04/14 08:05:54;;;;;;;5.45;2.22;;;;;;;12.48;37.18;100551.25;5053195;28;20543;-71
2023/04/14 08:08:22;;;;;;;4.32;2.30;;;;;;;12.55;36.43;100554.25;5052453;28;20374;-71
2023/04/14 08:10:50;;;;;;;4.32;2.10;;;;;;;12.61;36.34;100550.91;5045819;28;20427;-70
2023/04/14 08:13:18;;;;;;;5.53;2.35;;;;;;;12.63;36.57;100549.75;5045969;28;20073;-71
2023/04/14 08:15:46;;;;;;;6.03;2.80;;;;;;;12.67;36.42;100550.31;5053520;28;20503;-71
2023/04/14 08:18:14;;;;;;;3.83;2.28;;;;;;;12.71;35.98;100559.94;5058333;28;20040;-71
2023/04/14 08:20:43;;;;;;;4.65;2.25;;;;;;;12.74;36.45;100560.50;5055400;28;20052;-71
2023/04/14 08:23:11;;;;;;;5.68;2.40;;;;;;;12.77;35.80;100554.72;5056483;28;20522;-70
2023/04/14 08:25:39;;;;;;;5.68;2.35;;;;;;;12.80;35.86;100559.88;5050312;28;20122;-72
2023/04/14 08:28:07;;;;;;;5.47;2.50;;;;;;;12.85;35.41;100557.56;5029974;28;20088;-71
2023/04/14 08:30:35;;;;;;;5.13;2.47;;;;;;;12.86;35.41;100559.28;5055368;28;20065;-71
2023/04/14 08:33:04;;;;;;;5.78;2.58;;;;;;;12.87;35.53;100550.00;5046981;28;20041;-71
2023/04/14 08:35:32;;;;;;;5.18;2.28;;;;;;;12.91;35.19;100547.81;5046404;28;20040;-71
2023/04/14 08:38:09;;;;;;;4.28;2.40;;;;;;;12.94;35.51;100552.13;5048726;28;20041;-70
2023/04/14 08:40:38;;;;;;;6.35;2.13;;;;;;;12.95;35.40;100548.38;5049842;28;20045;-68
2023/04/14 08:43:06;;;;;;;5.75;3.17;;;;;;;12.94;34.98;100553.00;5050910;28;20040;-70
2023/04/14 08:45:35;;;;;;;5.75;2.38;;;;;;;12.99;34.86;100553.38;5045864;28;20412;-69
2023/04/14 08:48:04;;;;;;;6.72;2.08;;;;;;;13.04;34.94;100548.25;5055373;28;20041;-70
2023/04/14 08:50:36;;;;;;;4.68;1.92;;;;;;;13.08;34.86;100548.81;5058096;28;20041;-69
2023/04/14 08:53:10;;;;;;;5.95;2.40;;;;;;;13.13;35.07;100551.94;5056357;28;20559;-69
2023/04/14 08:55:40;;;;;;;4.72;2.20;;;;;;;13.20;34.92;100551.16;5048131;28;20897;-69
2023/04/14 08:58:10;;;;;;;4.22;2.03;;;;;;;13.27;34.67;100551.41;5053767;28;20103;-70
2023/04/14 09:00:38;;;;;;;5.07;2.20;;;;;;;13.33;34.71;100545.25;5045215;28;21892;-69
2023/04/14 09:03:07;;;;;;;5.55;2.17;;;;;;;13.39;34.41;100544.59;5036505;28;20144;-70
2023/04/14 09:05:36;;;;;;;5.82;2.70;;;;;;;13.45;34.64;100545.84;5051276;28;20055;-71
2023/04/14 09:08:04;;;;;;;5.82;2.05;;;;;;;13.52;34.06;100542.31;5049077;28;20045;-70
2023/04/14 09:10:34;;;;;;;5.45;1.80;;;;;;;13.60;33.52;100528.66;5042141;28;20123;-70
2023/04/14 09:13:05;;;;;;;3.70;1.50;;;;;;;13.67;33.93;100539.88;5047832;28;20043;-70
2023/04/14 09:15:33;;;;;;;5.07;1.83;;;;;;;13.70;33.87;100534.03;5053599;28;20114;-70
2023/04/14 09:18:01;;;;;;;4.95;1.98;;;;;;;13.77;33.51;100526.00;5052939;28;20057;-69
2023/04/14 09:20:30;;;;;;;4.20;1.55;;;;;;;13.81;33.69;100522.75;5053928;28;20381;-70
2023/04/14 09:23:04;;;;;;;5.93;1.67;;;;;;;13.86;33.32;100525.03;5051722;28;20102;-70
2023/04/14 09:25:33;;;;;;;2.95;1.55;;;;;;;13.91;32.97;100518.00;5045629;28;20127;-70
2023/04/14 09:28:01;;;;;;;5.30;1.60;;;;;;;13.96;33.04;100525.75;5043017;28;20440;-70
2023/04/14 09:30:31;;;;;;;4.13;1.38;;;;;;;14.02;32.74;100516.84;5053548;28;20041;-71
2023/04/14 09:32:59;;;;;;;2.88;1.30;;;;;;;14.07;33.04;100510.84;5052338;28;20067;-71
2023/04/14 09:35:43;;;;;;;3.47;1.20;;;;;;;14.13;32.05;100516.53;5047942;28;20040;-71
2023/04/14 09:38:11;;;;;;;3.53;1.42;;;;;;;14.15;32.27;100508.97;5053165;28;20472;-71
2023/04/14 09:40:43;;;;;;;3.42;1.30;;;;;;;14.23;31.55;100511.78;5045400;28;20057;-71
2023/04/14 09:43:24;;;;;;;4.18;1.30;;;;;;;14.25;31.09;100508.84;5052565;28;20068;-71
2023/04/14 09:45:52;;;;;;;5.05;1.50;;;;;;;14.28;32.60;100506.63;5085121;22;20149;-69
2023/04/14 09:48:20;;;;;;;2.63;1.20;;;;;;;14.34;32.22;100510.59;5054863;28;20041;-69
2023/04/14 09:50:59;;;;;;;3.33;1.30;;;;;;;14.40;31.24;100501.66;5040689;28;20478;-69
2023/04/14 09:53:29;;;;;;;2.15;1.33;;;;;;;14.44;32.23;100510.44;5061368;28;20060;-69
2023/04/14 09:56:01;;;;;;;3.58;1.15;;;;;;;14.49;31.91;100522.72;5067194;28;20044;-69
2023/04/14 09:58:31;;;;;;;5.05;1.67;;;;;;;14.48;31.47;100507.22;5061338;28;20040;-70
2023/04/14 10:00:59;;;;;;;3.42;1.10;;;;;;;14.53;31.02;100502.06;5056276;28;20499;-70
2023/04/14 10:03:36;;;;;;;4.30;1.40;;;;;;;14.58;30.18;100509.84;5061807;28;20391;-70
2023/04/14 10:06:08;;;;;;;3.70;1.17;;;;;;;14.59;30.80;100506.91;5052683;28;20511;-69
2023/04/14 10:08:41;;;;;;;2.65;1.00;;;;;;;14.61;30.85;100493.81;5067195;28;20037;-69
2023/04/14 10:11:19;;;;;;;2.92;1.20;;;;;;;14.65;30.23;100503.47;5056892;28;20432;-69
2023/04/14 10:13:48;;;;;;;2.20;1.05;;;;;;;14.65;30.92;100489.72;5053848;28;20222;-70
2023/04/14 10:16:16;;;;;;;4.90;1.25;;;;;;;14.68;30.79;100483.84;5070796;28;20458;-68
2023/04/14 10:18:45;;;;;;;2.25;1.20;;;;;;;14.72;30.94;100485.25;5068205;28;20351;-68
2023/04/14 10:21:14;;;;;;;3.63;1.20;;;;;;;14.78;31.02;100478.19;5081232;28;20501;-67
2023/04/14 10:23:44;;;;;;;3.67;1.30;;;;;;;14.84;31.02;100477.50;5091290;28;20047;-68
2023/04/14 10:26:13;;;;;;;2.80;1.05;;;;;;;14.88;30.21;100464.25;5080973;28;20049;-67
2023/04/14 10:28:44;;;;;;;3.58;1.30;;;;;;;14.94;29.09;100469.06;5040641;28;20044;-68
2023/04/14 10:31:16;;;;;;;4.25;1.60;;;;;;;14.98;29.30;100467.69;5058003;28;20102;-67
2023/04/14 10:33:44;;;;;;;4.18;1.30;;;;;;;15.01;29.48;100464.59;5073829;28;20443;-68
2023/04/14 10:36:12;;;;;;;3.03;1.13;;;;;;;15.04;29.46;100462.34;5050063;28;20448;-69
2023/04/14 10:38:42;;;;;;;3.22;1.20;;;;;;;15.08;29.39;100451.84;5063073;28;20251;-68
2023/04/14 10:41:11;;;;;;;3.85;1.55;;;;;;;15.14;29.35;100452.00;5057958;28;20037;-69
2023/04/14 10:43:40;;;;;;;3.10;1.20;;;;;;;15.18;29.60;100449.75;5068902;28;20047;-69
2023/04/14 10:46:09;;;;;;;2.85;1.02;;;;;;;15.27;29.16;100447.84;5073835;28;20072;-68
2023/04/14 10:48:40;;;;;;;2.70;1.13;;;;;;;15.31;29.53;100433.53;5049026;28;20475;-69
2023/04/14 10:51:10;;;;;;;2.63;1.15;;;;;;;15.38;29.52;100451.13;5053514;28;20132;-70
2023/04/14 10:53:44;;;;;;;2.03;0.98;;;;;;;15.46;29.05;100439.22;5068564;28;20037;-69
2023/04/14 10:56:13;;;;;;;2.35;0.80;;;;;;;15.52;28.86;100438.50;5079193;28;20089;-69
2023/04/14 10:58:40;;;;;;;2.80;1.20;;;;;;;15.57;28.37;100435.25;5087636;28;20050;-69
2023/04/14 11:01:23;;;;;;;2.15;0.80;;;;;;;15.62;27.22;100439.16;5087740;28;20039;-68
2023/04/14 11:03:51;;;;;;;2.97;1.08;;;;;;;15.63;28.06;100426.25;5081488;28;20032;-70
2023/04/14 11:06:52;;;;;;;2.13;1.00;;;;;;;15.67;26.80;100422.09;5068485;28;20158;-69
2023/04/14 11:09:32;;;;;;;3.60;1.15;;;;;;;15.69;27.07;100418.09;5048555;28;20052;-70
2023/04/14 11:12:05;;;;;;;3.53;1.20;;;;;;;15.72;27.24;100414.16;5068516;28;21733;-69
2023/04/14 11:14:35;;;;;;;2.58;1.00;;;;;;;15.73;27.43;100405.69;5078597;28;20566;-69
2023/04/14 11:17:05;;;;;;;3.00;1.00;;;;;;;15.76;27.63;100421.00;5089073;27;20043;-70
2023/04/14 11:19:33;;;;;;;2.97;1.00;;;;;;;15.77;27.83;100417.22;5055880;28;20395;-69
2023/04/14 11:22:01;;;;;;;3.22;1.10;;;;;;;15.78;27.84;100411.53;5087001;28;20032;-70
2023/04/14 11:24:29;;;;;;;1.92;0.90;;;;;;;15.81;27.77;100413.94;5090765;28;20080;-70
2023/04/14 11:26:57;;;;;;;3.08;1.05;;;;;;;15.84;27.77;100408.03;5059649;28;20050;-69
2023/04/14 11:29:25;;;;;;;3.15;0.98;;;;;;;15.87;27.41;100407.69;5072107;28;20135;-69
2023/04/14 11:32:05;;;;;;;2.58;1.02;;;;;;;15.89;25.13;100404.75;5067261;28;20045;-70
2023/04/14 11:34:33;;;;;;;3.10;1.10;;;;;;;15.87;26.42;100399.41;5060336;28;20059;-70
2023/04/14 11:37:02;;;;;;;2.20;1.13;;;;;;;15.88;26.02;100414.06;5077039;28;20043;-69
2023/04/14 11:39:31;;;;;;;2.58;1.00;;;;;;;15.88;26.22;100408.56;5084215;28;20036;-69
2023/04/14 11:42:00;;;;;;;3.30;1.02;;;;;;;15.87;26.42;100401.31;5089449;28;20450;-69
2023/04/14 11:44:29;;;;;;;2.42;0.80;;;;;;;15.87;26.15;100402.16;5078580;28;20418;-70
2023/04/14 11:46:57;;;;;;;2.40;0.98;;;;;;;15.88;26.07;100397.50;5080739;28;20043;-70